Time;durP1;ratioP1;P1;durP2;ratioP2;P2;SDS_P1;SDS_P2;PMS_P1;PMS_P2;Temp;Humidity;BMP_temperature;BMP_pressure;BME280_temperature;BME280_humidity;BME280_pressure;Samples;Min_cycle;Max_cycle;Signal;HPM_P1;HPM_P2
2022/03/08 00:02:17;;;;;;;;;;;17.30;40.50;;;;;;5040870;28;43034;-80
2022/03/08 00:04:43;;;;;;;;;;;17.30;40.80;;;;;;5043867;28;43404;-79
2022/03/08 00:07:08;;;;;;;;;;;17.30;41.00;;;;;;5043187;28;42964;-81
2022/03/08 00:09:34;;;;;;;;;;;17.40;41.00;;;;;;5040343;28;42907;-79
2022/03/08 00:11:59;;;;;;;;;;;17.40;41.10;;;;;;5042860;28;43012;-80
2022/03/08 00:14:25;;;;;;;;;;;17.20;40.50;;;;;;5043275;28;43023;-78
2022/03/08 00:16:51;;;;;;;;;;;17.40;41.20;;;;;;5043799;28;42990;-78
2022/03/08 00:19:16;;;;;;;;;;;17.40;41.20;;;;;;5040646;28;43538;-79
2022/03/08 00:21:42;;;;;;;;;;;17.40;41.20;;;;;;5043538;28;42990;-78
2022/03/08 00:24:07;;;;;;;;;;;17.40;41.20;;;;;;5042821;28;43927;-79
2022/03/08 00:26:33;;;;;;;;;;;17.40;41.30;;;;;;5043271;28;42870;-79
2022/03/08 00:28:59;;;;;;;;;;;17.40;41.30;;;;;;5043518;28;43145;-79
2022/03/08 00:31:24;;;;;;;;;;;17.40;40.80;;;;;;5042520;28;43085;-80
2022/03/08 00:33:50;;;;;;;;;;;17.40;41.30;;;;;;5039677;28;42922;-79
2022/03/08 00:36:16;;;;;;;;;;;17.40;41.30;;;;;;5042942;28;43109;-79
2022/03/08 00:38:42;;;;;;;;;;;17.40;41.50;;;;;;5043243;28;43049;-79
2022/03/08 00:41:07;;;;;;;;;;;17.40;41.50;;;;;;5043042;28;43280;-77
2022/03/08 00:43:33;;;;;;;;;;;17.40;41.50;;;;;;5042739;28;43182;-78
2022/03/08 00:45:59;;;;;;;;;;;17.40;41.60;;;;;;5043996;28;43257;-79
2022/03/08 00:48:24;;;;;;;;;;;17.40;41.70;;;;;;5042660;28;43524;-79
2022/03/08 00:50:50;;;;;;;;;;;17.40;41.80;;;;;;5043076;28;42933;-80
2022/03/08 00:53:15;;;;;;;;;;;17.40;41.90;;;;;;5043173;28;43751;-80
2022/03/08 00:55:41;;;;;;;;;;;17.40;42.00;;;;;;5043813;28;43221;-80
2022/03/08 00:58:06;;;;;;;;;;;17.40;42.00;;;;;;5043588;28;44028;-78
2022/03/08 01:00:33;;;;;;;;;;;17.40;42.10;;;;;;5044378;28;43000;-79
2022/03/08 01:02:59;;;;;;;;;;;17.40;42.10;;;;;;5043579;28;42944;-79
2022/03/08 01:05:24;;;;;;;;;;;17.40;42.10;;;;;;5044164;28;42904;-78
2022/03/08 01:07:50;;;;;;;;;;;17.40;42.20;;;;;;5043960;28;42808;-79
2022/03/08 01:10:17;;;;;;;;;;;17.50;42.30;;;;;;5046007;28;42816;-79
2022/03/08 01:12:43;;;;;;;;;;;17.40;42.30;;;;;;5054039;28;44639;-80
2022/03/08 01:15:09;;;;;;;;;;;17.40;42.40;;;;;;5049266;28;43320;-78
2022/03/08 01:17:35;;;;;;;;;;;20.30;44.20;;;;;;5046639;28;43106;-79
2022/03/08 01:20:01;;;;;;;;;;;17.40;42.80;;;;;;5046970;28;43073;-79
2022/03/08 01:22:26;;;;;;;;;;;17.40;42.90;;;;;;5045338;28;42920;-79
2022/03/08 01:24:53;;;;;;;;;;;17.40;43.00;;;;;;5046167;28;43128;-78
2022/03/08 01:27:19;;;;;;;;;;;17.50;43.60;;;;;;5045624;28;43479;-80
2022/03/08 01:29:44;;;;;;;;;;;17.40;43.00;;;;;;5047015;28;43013;-80
2022/03/08 01:32:10;;;;;;;;;;;17.40;42.60;;;;;;5047366;28;43613;-78
2022/03/08 01:34:35;;;;;;;;;;;17.50;42.80;;;;;;5047282;28;42978;-80
2022/03/08 01:37:02;;;;;;;;;;;17.40;42.70;;;;;;5046774;28;42902;-79
2022/03/08 01:39:27;;;;;;;;;;;17.40;43.80;;;;;;5047185;28;42967;-79
2022/03/08 01:41:53;;;;;;;;;;;17.40;43.40;;;;;;5046880;28;42900;-80
2022/03/08 01:44:19;;;;;;;;;;;17.50;43.50;;;;;;5046627;28;42907;-79
2022/03/08 01:46:45;;;;;;;;;;;17.40;43.40;;;;;;5046075;28;43715;-79
2022/03/08 01:49:10;;;;;;;;;;;17.50;43.60;;;;;;5046518;28;43142;-79
2022/03/08 01:51:37;;;;;;;;;;;17.40;43.50;;;;;;5046587;28;43228;-80
2022/03/08 01:54:03;;;;;;;;;;;17.50;43.60;;;;;;5046855;28;43068;-80
2022/03/08 01:56:29;;;;;;;;;;;17.50;43.70;;;;;;5046480;28;43142;-80
2022/03/08 01:58:56;;;;;;;;;;;17.50;43.70;;;;;;5045879;28;42832;-80
2022/03/08 02:01:22;;;;;;;;;;;17.50;43.70;;;;;;5045573;28;42856;-80
2022/03/08 02:03:48;;;;;;;;;;;17.50;43.60;;;;;;5046157;28;42931;-80
2022/03/08 02:06:13;;;;;;;;;;;17.40;43.60;;;;;;5046054;28;43012;-80
2022/03/08 02:08:39;;;;;;;;;;;17.50;43.60;;;;;;5046244;28;43327;-80
2022/03/08 02:11:04;;;;;;;;;;;17.50;43.60;;;;;;5045751;28;43445;-80
2022/03/08 02:13:30;;;;;;;;;;;17.50;43.60;;;;;;5045245;28;42998;-79
2022/03/08 02:15:55;;;;;;;;;;;17.50;43.60;;;;;;5045791;28;44151;-80
2022/03/08 02:18:21;;;;;;;;;;;17.50;43.60;;;;;;5045951;28;42979;-79
2022/03/08 02:20:47;;;;;;;;;;;17.50;43.50;;;;;;5045710;28;43410;-80
2022/03/08 02:23:12;;;;;;;;;;;17.50;43.50;;;;;;5045727;28;43116;-79
2022/03/08 02:25:38;;;;;;;;;;;17.50;43.60;;;;;;5045415;28;43942;-79
2022/03/08 02:28:05;;;;;;;;;;;17.50;43.60;;;;;;5045664;28;43059;-79
2022/03/08 02:30:31;;;;;;;;;;;17.50;43.70;;;;;;5045548;28;42944;-80
2022/03/08 02:32:56;;;;;;;;;;;17.50;43.70;;;;;;5045787;28;42906;-80
2022/03/08 02:35:23;;;;;;;;;;;17.50;43.80;;;;;;5043804;28;43758;-80
2022/03/08 02:37:57;;;;;;;;;;;17.50;43.70;;;;;;5045403;28;42982;-80
2022/03/08 02:40:23;;;;;;;;;;;17.50;43.70;;;;;;5045665;28;43805;-80
2022/03/08 02:42:49;;;;;;;;;;;17.50;43.80;;;;;;5026589;28;43062;-80
2022/03/08 02:45:16;;;;;;;;;;;17.50;44.00;;;;;;5025267;28;43017;-79
2022/03/08 02:47:42;;;;;;;;;;;17.50;44.00;;;;;;5025358;28;42963;-79
2022/03/08 02:50:08;;;;;;;;;;;17.50;44.10;;;;;;5025013;28;42892;-80
2022/03/08 02:52:34;;;;;;;;;;;17.50;44.30;;;;;;5025091;28;42993;-80
2022/03/08 02:55:00;;;;;;;;;;;17.50;44.30;;;;;;5025113;28;43206;-79
2022/03/08 02:57:26;;;;;;;;;;;17.50;44.40;;;;;;5024816;28;42939;-80
2022/03/08 02:59:52;;;;;;;;;;;17.50;43.90;;;;;;5024520;28;44143;-79
2022/03/08 03:02:17;;;;;;;;;;;17.50;44.30;;;;;;5022306;28;43344;-80
2022/03/08 03:04:43;;;;;;;;;;;17.50;44.00;;;;;;5039525;28;44584;-80
2022/03/08 03:07:09;;;;;;;;;;;17.50;44.50;;;;;;5024426;28;42983;-79
2022/03/08 03:09:34;;;;;;;;;;;17.50;44.60;;;;;;5024862;28;43469;-79
2022/03/08 03:12:00;;;;;;;;;;;17.50;44.10;;;;;;5024809;28;43198;-76
2022/03/08 03:14:25;;;;;;;;;;;17.50;44.60;;;;;;5024760;28;43475;-79
2022/03/08 03:16:51;;;;;;;;;;;17.50;44.60;;;;;;5023913;28;43053;-80
2022/03/08 03:19:16;;;;;;;;;;;17.50;44.70;;;;;;5023344;28;43070;-79
2022/03/08 03:21:42;;;;;;;;;;;17.50;44.70;;;;;;5024766;28;43098;-79
2022/03/08 03:24:07;;;;;;;;;;;17.50;44.60;;;;;;5023994;28;43555;-78
2022/03/08 03:26:33;;;;;;;;;;;17.50;44.60;;;;;;5024266;28;43024;-80
2022/03/08 03:28:58;;;;;;;;;;;17.50;44.20;;;;;;5028534;28;43950;-83
2022/03/08 03:31:24;;;;;;;;;;;17.50;44.80;;;;;;5044698;28;42959;-75
2022/03/08 03:33:49;;;;;;;;;;;17.50;44.30;;;;;;5044296;28;43717;-82
2022/03/08 03:36:15;;;;;;;;;;;17.50;44.90;;;;;;5044341;28;42930;-81
2022/03/08 03:38:41;;;;;;;;;;;17.50;45.00;;;;;;5044358;28;43548;-81
2022/03/08 03:41:06;;;;;;;;;;;17.50;44.40;;;;;;5044609;28;42796;-81
2022/03/08 03:43:32;;;;;;;;;;;17.50;45.00;;;;;;5044407;28;43109;-81
2022/03/08 03:45:57;;;;;;;;;;;17.50;45.00;;;;;;5044130;28;42923;-80
2022/03/08 03:48:23;;;;;;;;;;;17.50;45.00;;;;;;5044602;28;43017;-81
2022/03/08 03:50:48;;;;;;;;;;;17.50;44.50;;;;;;5044950;28;42903;-81
2022/03/08 03:53:14;;;;;;;;;;;17.50;45.10;;;;;;5044428;28;43006;-81
2022/03/08 03:55:39;;;;;;;;;;;17.50;45.00;;;;;;5049826;28;43170;-78
2022/03/08 03:58:05;;;;;;;;;;;17.50;45.00;;;;;;5050565;28;42872;-80
2022/03/08 04:00:30;;;;;;;;;;;17.50;45.00;;;;;;5045276;28;42967;-80
2022/03/08 04:02:56;;;;;;;;;;;17.50;45.10;;;;;;5044733;28;43370;-79
2022/03/08 04:05:21;;;;;;;;;;;17.50;45.10;;;;;;5043761;28;42886;-80
2022/03/08 04:07:47;;;;;;;;;;;17.50;45.20;;;;;;5043424;28;43091;-79
2022/03/08 04:10:13;;;;;;;;;;;17.50;45.10;;;;;;5042554;28;43071;-79
2022/03/08 04:12:39;;;;;;;;;;;17.50;45.10;;;;;;5043682;28;43919;-78
2022/03/08 04:15:05;;;;;;;;;;;17.50;45.20;;;;;;5043482;28;43575;-79
2022/03/08 04:17:30;;;;;;;;;;;17.50;44.70;;;;;;5043706;28;42962;-79
2022/03/08 04:19:56;;;;;;;;;;;17.60;45.20;;;;;;5043742;28;43051;-79
2022/03/08 04:22:21;;;;;;;;;;;17.50;44.60;;;;;;5042084;28;43367;-80
2022/03/08 04:24:47;;;;;;;;;;;17.50;44.70;;;;;;5042360;28;43085;-78
2022/03/08 04:27:13;;;;;;;;;;;17.50;44.70;;;;;;5043951;28;43710;-78
2022/03/08 04:29:38;;;;;;;;;;;17.50;45.20;;;;;;5044135;28;43021;-78
2022/03/08 04:32:04;;;;;;;;;;;17.50;45.10;;;;;;5043296;28;43507;-79
2022/03/08 04:34:30;;;;;;;;;;;17.50;45.20;;;;;;5041006;28;43078;-80
2022/03/08 04:36:55;;;;;;;;;;;17.50;45.10;;;;;;5034597;28;43458;-80
2022/03/08 04:39:21;;;;;;;;;;;17.50;45.10;;;;;;5041425;28;42923;-84
2022/03/08 04:41:47;;;;;;;;;;;17.50;44.60;;;;;;5041875;28;43101;-83
2022/03/08 04:44:12;;;;;;;;;;;17.50;45.10;;;;;;5042966;28;42891;-81
2022/03/08 04:46:38;;;;;;;;;;;17.50;44.50;;;;;;5046129;28;43003;-82
2022/03/08 04:49:04;;;;;;;;;;;17.50;45.10;;;;;;5047192;28;43320;-83
2022/03/08 04:51:30;;;;;;;;;;;17.50;45.10;;;;;;5046329;28;42971;-83
2022/03/08 04:53:55;;;;;;;;;;;17.50;45.10;;;;;;5046752;28;42969;-80
2022/03/08 04:56:21;;;;;;;;;;;17.50;45.10;;;;;;5046479;28;42917;-82
2022/03/08 04:58:46;;;;;;;;;;;17.50;45.10;;;;;;5047042;28;43604;-83
2022/03/08 05:01:13;;;;;;;;;;;17.50;45.10;;;;;;5037100;28;43060;-82
2022/03/08 05:03:38;;;;;;;;;;;17.50;45.10;;;;;;5039310;28;42908;-81
2022/03/08 05:06:07;;;;;;;;;;;17.50;45.10;;;;;;5045994;28;43092;-81
2022/03/08 05:08:32;;;;;;;;;;;17.50;45.10;;;;;;5045721;28;43100;-80
2022/03/08 05:10:58;;;;;;;;;;;17.50;45.10;;;;;;5046287;28;43695;-81
2022/03/08 05:13:24;;;;;;;;;;;17.50;44.60;;;;;;5045545;28;43069;-83
2022/03/08 05:15:50;;;;;;;;;;;17.50;45.10;;;;;;5046461;28;43014;-82
2022/03/08 05:18:16;;;;;;;;;;;17.50;44.70;;;;;;5046533;28;43012;-83
2022/03/08 05:20:42;;;;;;;;;;;17.50;45.10;;;;;;5046596;28;42935;-78
2022/03/08 05:23:07;;;;;;;;;;;17.50;45.20;;;;;;5045836;28;43047;-80
2022/03/08 05:25:33;;;;;;;;;;;17.50;45.10;;;;;;5046741;28;43141;-82
2022/03/08 05:27:59;;;;;;;;;;;17.50;45.30;;;;;;5046339;28;43112;-81
2022/03/08 05:30:25;;;;;;;;;;;17.50;45.10;;;;;;5042964;28;43056;-83
2022/03/08 05:32:50;;;;;;;;;;;17.50;45.10;;;;;;5033466;28;43026;-80
2022/03/08 05:35:16;;;;;;;;;;;17.50;45.10;;;;;;5046049;28;43282;-83
2022/03/08 05:37:42;;;;;;;;;;;17.50;44.60;;;;;;5045895;28;43372;-84
2022/03/08 05:40:08;;;;;;;;;;;17.50;44.80;;;;;;5044689;28;42985;-77
2022/03/08 05:42:33;;;;;;;;;;;17.40;44.10;;;;;;5045691;28;42963;-76
2022/03/08 05:44:59;;;;;;;;;;;17.40;43.30;;;;;;5044632;28;43409;-76
2022/03/08 05:47:24;;;;;;;;;;;17.40;43.40;;;;;;5043815;28;43064;-77
2022/03/08 05:49:50;;;;;;;;;;;17.40;43.60;;;;;;5036893;28;43995;-78
2022/03/08 05:52:15;;;;;;;;;;;17.40;42.90;;;;;;5032593;28;42900;-80
2022/03/08 05:54:41;;;;;;;;;;;17.40;43.70;;;;;;5038024;28;43189;-76
2022/03/08 05:57:06;;;;;;;;;;;17.40;43.90;;;;;;5037316;28;43029;-78
2022/03/08 05:59:32;;;;;;;;;;;17.40;43.80;;;;;;5043062;28;43475;-76
2022/03/08 06:01:57;;;;;;;;;;;17.40;43.90;;;;;;5044377;28;42888;-79
2022/03/08 06:04:23;;;;;;;;;;;17.40;43.30;;;;;;5044580;28;43063;-78
2022/03/08 06:06:50;;;;;;;;;;;17.40;43.20;;;;;;5038306;28;43176;-77
2022/03/08 06:09:16;;;;;;;;;;;17.20;38.60;;;;;;5031621;28;43098;-78
2022/03/08 06:11:41;;;;;;;;;;;16.70;36.30;;;;;;5025418;28;43051;-78
2022/03/08 06:14:07;;;;;;;;;;;16.50;35.70;;;;;;5025423;28;42912;-78
2022/03/08 06:16:33;;;;;;;;;;;16.30;34.60;;;;;;5025692;28;42961;-77
2022/03/08 06:18:59;;;;;;;;;;;16.30;34.00;;;;;;5025672;28;43786;-79
2022/03/08 06:21:25;;;;;;;;;;;16.20;34.60;;;;;;5024195;28;43285;-79
2022/03/08 06:23:50;;;;;;;;;;;16.20;34.10;;;;;;5031885;28;43496;-77
2022/03/08 06:26:16;;;;;;;;;;;16.00;34.00;;;;;;5044760;28;43032;-79
2022/03/08 06:28:42;;;;;;;;;;;16.10;33.50;;;;;;5044024;28;43833;-79
2022/03/08 06:31:07;;;;;;;;;;;16.00;33.40;;;;;;5040410;28;43247;-77
2022/03/08 06:33:33;;;;;;;;;;;16.00;33.50;;;;;;5044404;28;42974;-77
2022/03/08 06:35:58;;;;;;;;;;;15.90;33.00;;;;;;5044291;28;43164;-76
2022/03/08 06:38:24;;;;;;;;;;;15.90;33.00;;;;;;5043570;28;43710;-77
2022/03/08 06:40:49;;;;;;;;;;;15.90;33.00;;;;;;5045061;28;43656;-77
2022/03/08 06:43:15;;;;;;;;;;;15.80;32.40;;;;;;5043369;28;44389;-77
2022/03/08 06:45:40;;;;;;;;;;;15.80;32.70;;;;;;5045675;28;42935;-77
2022/03/08 06:48:06;;;;;;;;;;;15.70;32.20;;;;;;5044641;28;43041;-76
2022/03/08 06:50:32;;;;;;;;;;;15.80;32.70;;;;;;5045526;28;42966;-77
2022/03/08 06:52:57;;;;;;;;;;;15.70;32.20;;;;;;5045442;28;43981;-76
2022/03/08 06:55:23;;;;;;;;;;;15.80;32.60;;;;;;5045647;28;42804;-76
2022/03/08 06:57:49;;;;;;;;;;;15.80;32.70;;;;;;5044404;28;43089;-76
2022/03/08 07:00:14;;;;;;;;;;;15.70;32.00;;;;;;5044397;28;42788;-76
2022/03/08 07:02:40;;;;;;;;;;;15.70;32.40;;;;;;5044058;28;43119;-78
2022/03/08 07:05:06;;;;;;;;;;;15.40;33.50;;;;;;5045049;28;43143;-80
2022/03/08 07:07:32;;;;;;;;;;;15.10;32.60;;;;;;5040301;28;44277;-79
2022/03/08 07:09:58;;;;;;;;;;;14.80;32.40;;;;;;5045104;28;42836;-81
2022/03/08 07:12:24;;;;;;;;;;;14.60;32.30;;;;;;5045977;28;43047;-80
2022/03/08 07:14:49;;;;;;;;;;;14.50;32.40;;;;;;5046149;28;42937;-80
2022/03/08 07:17:15;;;;;;;;;;;14.10;32.00;;;;;;5045748;28;43695;-78
2022/03/08 07:19:40;;;;;;;;;;;14.00;32.90;;;;;;5046062;28;43055;-78
2022/03/08 07:22:06;;;;;;;;;;;14.20;32.70;;;;;;5045924;28;43093;-77
2022/03/08 07:24:31;;;;;;;;;;;14.20;33.00;;;;;;5045770;28;42939;-77
2022/03/08 07:26:57;;;;;;;;;;;14.20;32.70;;;;;;5045936;28;42990;-78
2022/03/08 07:29:22;;;;;;;;;;;14.10;32.00;;;;;;5040634;28;43005;-78
2022/03/08 07:31:48;;;;;;;;;;;14.00;32.00;;;;;;5044448;28;44841;-78
2022/03/08 07:34:14;;;;;;;;;;;13.90;32.50;;;;;;5047546;28;42959;-78
2022/03/08 07:36:39;;;;;;;;;;;13.90;32.10;;;;;;5045703;28;43566;-78
2022/03/08 07:39:06;;;;;;;;;;;14.00;32.50;;;;;;5045928;28;43215;-78
2022/03/08 07:41:32;;;;;;;;;;;13.90;32.10;;;;;;5043590;28;44674;-78
2022/03/08 07:43:57;;;;;;;;;;;13.90;32.10;;;;;;5045245;28;42828;-78
2022/03/08 07:46:23;;;;;;;;;;;13.80;32.20;;;;;;5044133;28;44884;-78
2022/03/08 07:48:48;;;;;;;;;;;13.70;31.70;;;;;;5045358;28;42958;-79
2022/03/08 07:51:14;;;;;;;;;;;13.90;30.50;;;;;;5045176;28;43745;-77
2022/03/08 07:53:39;;;;;;;;;;;13.90;30.30;;;;;;5044932;28;43002;-78
2022/03/08 07:56:05;;;;;;;;;;;13.50;30.60;;;;;;5045015;28;43684;-79
2022/03/08 07:58:36;;;;;;;;;;;13.70;30.50;;;;;;5041753;28;59684;-80
2022/03/08 08:01:01;;;;;;;;;;;13.90;30.00;;;;;;5044256;28;42966;-79
2022/03/08 08:03:27;;;;;;;;;;;13.70;29.70;;;;;;5041771;28;43153;-79
2022/03/08 08:05:52;;;;;;;;;;;14.00;30.10;;;;;;5044284;28;43583;-80
2022/03/08 08:08:18;;;;;;;;;;;13.80;30.00;;;;;;5044392;28;43054;-78
2022/03/08 08:10:44;;;;;;;;;;;13.70;29.40;;;;;;5042891;28;44670;-80
2022/03/08 08:13:09;;;;;;;;;;;14.10;29.50;;;;;;5044606;28;42851;-79
2022/03/08 08:15:37;;;;;;;;;;;14.00;29.30;;;;;;5044575;28;43903;-79
2022/03/08 08:18:02;;;;;;;;;;;13.90;29.40;;;;;;5043726;28;43124;-79
2022/03/08 08:20:28;;;;;;;;;;;14.20;29.40;;;;;;5042093;28;43131;-80
2022/03/08 08:22:53;;;;;;;;;;;14.00;29.60;;;;;;5043600;28;42950;-78
2022/03/08 08:25:19;;;;;;;;;;;14.00;29.20;;;;;;5044564;28;43635;-80
2022/03/08 08:27:44;;;;;;;;;;;14.00;28.80;;;;;;5044163;28;42946;-80
2022/03/08 08:30:11;;;;;;;;;;;13.80;29.00;;;;;;5044320;28;43960;-80
2022/03/08 08:32:36;;;;;;;;;;;13.50;29.00;;;;;;5044609;28;42986;-80
2022/03/08 08:35:02;;;;;;;;;;;13.10;29.20;;;;;;5045991;28;42958;-80
2022/03/08 08:37:28;;;;;;;;;;;13.40;29.40;;;;;;5044011;28;43042;-80
2022/03/08 08:39:54;;;;;;;;;;;13.80;28.90;;;;;;5043839;28;43013;-80
2022/03/08 08:42:19;;;;;;;;;;;13.80;28.40;;;;;;5044229;28;42892;-80
2022/03/08 08:44:46;;;;;;;;;;;13.90;28.00;;;;;;5043986;28;42897;-79
2022/03/08 08:47:12;;;;;;;;;;;13.90;27.50;;;;;;5044878;28;42987;-80
2022/03/08 08:49:37;;;;;;;;;;;13.70;28.30;;;;;;5044708;28;43057;-80
2022/03/08 08:52:03;;;;;;;;;;;13.70;28.40;;;;;;5044156;28;42930;-80
2022/03/08 08:54:29;;;;;;;;;;;13.80;28.10;;;;;;5043077;28;44326;-80
2022/03/08 08:56:54;;;;;;;;;;;13.60;27.80;;;;;;5044107;28;42972;-79
2022/03/08 08:59:20;;;;;;;;;;;13.50;28.90;;;;;;5043854;28;43601;-79
2022/03/08 09:01:45;;;;;;;;;;;13.50;29.00;;;;;;5044285;28;43799;-79
2022/03/08 09:04:11;;;;;;;;;;;13.70;28.70;;;;;;5043511;28;42930;-80
2022/03/08 09:06:37;;;;;;;;;;;13.50;29.10;;;;;;5044050;28;42983;-80
2022/03/08 09:09:02;;;;;;;;;;;12.90;28.80;;;;;;5046011;28;42879;-78
2022/03/08 09:11:28;;;;;;;;;;;12.80;29.30;;;;;;5044576;28;42915;-79
2022/03/08 09:13:56;;;;;;;;;;;13.00;29.70;;;;;;5021731;28;43294;-78
2022/03/08 09:16:22;;;;;;;;;;;13.50;29.90;;;;;;5023467;28;43121;-78
2022/03/08 09:18:48;;;;;;;;;;;14.00;29.90;;;;;;5039316;28;43563;-79
2022/03/08 09:21:14;;;;;;;;;;;14.10;29.10;;;;;;5043659;28;42908;-77
2022/03/08 09:23:40;;;;;;;;;;;14.10;29.10;;;;;;5041785;28;43538;-77
2022/03/08 09:26:05;;;;;;;;;;;14.20;29.30;;;;;;5042660;28;42911;-76
2022/03/08 09:28:31;;;;;;;;;;;14.30;29.40;;;;;;5042732;28;43552;-77
2022/03/08 09:30:59;;;;;;;;;;;14.40;29.40;;;;;;5042573;28;43012;-78
2022/03/08 09:33:24;;;;;;;;;;;14.40;29.30;;;;;;5044188;28;43658;-78
2022/03/08 09:35:50;;;;;;;;;;;14.50;29.40;;;;;;5046817;28;42955;-78
2022/03/08 09:38:16;;;;;;;;;;;14.40;29.40;;;;;;5046230;28;43673;-77
2022/03/08 09:40:41;;;;;;;;;;;14.50;29.70;;;;;;5046008;28;42984;-77
2022/03/08 09:43:07;;;;;;;;;;;14.60;30.00;;;;;;5046055;28;43000;-75
2022/03/08 09:45:33;;;;;;;;;;;14.60;29.90;;;;;;5046255;28;43233;-75
2022/03/08 09:47:59;;;;;;;;;;;14.60;30.10;;;;;;5046622;28;43633;-77
2022/03/08 09:50:25;;;;;;;;;;;14.50;29.60;;;;;;5047212;28;42995;-78
2022/03/08 09:52:53;;;;;;;;;;;14.50;29.20;;;;;;5044973;28;44004;-81
2022/03/08 09:55:18;;;;;;;;;;;14.40;28.60;;;;;;5045220;28;43676;-79
2022/03/08 09:57:46;;;;;;;;;;;14.00;28.40;;;;;;5045209;28;43196;-80
2022/03/08 10:00:12;;;;;;;;;;;13.80;28.30;;;;;;5046287;28;43282;-80
2022/03/08 10:02:49;;;;;;;;;;;13.60;28.20;;;;;;5046288;28;43463;-80
2022/03/08 10:05:15;;;;;;;;;;;14.00;28.00;;;;;;5046893;28;43141;-80
2022/03/08 10:08:00;;;;;;;;;;;14.10;27.80;;;;;;5046967;28;43009;-79
2022/03/08 10:10:26;;;;;;;;;;;13.70;27.40;;;;;;5046945;28;42962;-79
2022/03/08 10:12:57;;;;;;;;;;;13.90;27.90;;;;;;5047074;28;42897;-81
2022/03/08 10:15:23;;;;;;;;;;;13.70;27.20;;;;;;5046925;28;43013;-79
2022/03/08 10:17:48;;;;;;;;;;;13.80;27.70;;;;;;5047006;28;42761;-80
2022/03/08 10:20:26;;;;;;;;;;;14.00;28.30;;;;;;5046939;28;42887;-79
2022/03/08 10:22:51;;;;;;;;;;;14.00;28.10;;;;;;5046693;28;42743;-80
2022/03/08 10:25:18;;;;;;;;;;;14.10;28.00;;;;;;5046938;28;43002;-79
2022/03/08 10:27:45;;;;;;;;;;;13.90;27.40;;;;;;5046329;28;45001;-80
2022/03/08 10:30:13;;;;;;;;;;;13.90;27.80;;;;;;5047097;28;42980;-79
2022/03/08 10:32:39;;;;;;;;;;;14.10;28.30;;;;;;5046388;28;44568;-80
2022/03/08 10:35:05;;;;;;;;;;;14.30;28.10;;;;;;5046510;28;42811;-80
2022/03/08 10:37:37;;;;;;;;;;;14.30;28.00;;;;;;5045880;28;42824;-79
2022/03/08 10:40:05;;;;;;;;;;;14.10;27.90;;;;;;5046692;28;42844;-80
2022/03/08 10:42:32;;;;;;;;;;;13.90;28.50;;;;;;5045314;28;43221;-79
2022/03/08 10:45:00;;;;;;;;;;;14.00;28.50;;;;;;5045462;28;42877;-80
2022/03/08 10:47:26;;;;;;;;;;;14.10;28.20;;;;;;5045719;28;44961;-79
2022/03/08 10:49:51;;;;;;;;;;;13.80;28.00;;;;;;5046377;28;43058;-80
2022/03/08 10:52:17;;;;;;;;;;;13.80;28.40;;;;;;5046236;28;43654;-79
2022/03/08 10:54:43;;;;;;;;;;;13.90;28.20;;;;;;5046558;28;43035;-79
2022/03/08 10:57:09;;;;;;;;;;;13.90;28.10;;;;;;5046474;28;42819;-80
2022/03/08 10:59:35;;;;;;;;;;;13.90;27.90;;;;;;5046025;28;42832;-79
2022/03/08 11:02:30;;;;;;;;;;;14.10;28.20;;;;;;5044447;28;44786;-80
2022/03/08 11:05:08;;;;;;;;;;;14.20;28.00;;;;;;5040939;28;42996;-79
2022/03/08 11:07:37;;;;;;;;;;;14.20;27.90;;;;;;5045970;28;42984;-80
2022/03/08 11:10:04;;;;;;;;;;;14.00;27.70;;;;;;5045825;28;42943;-80
2022/03/08 11:12:29;;;;;;;;;;;13.80;28.40;;;;;;5045612;28;43551;-79
2022/03/08 11:14:55;;;;;;;;;;;13.90;28.40;;;;;;5045795;28;42917;-79
2022/03/08 11:17:21;;;;;;;;;;;14.20;28.60;;;;;;5045616;28;42861;-78
2022/03/08 11:19:48;;;;;;;;;;;13.90;28.20;;;;;;5045952;28;42907;-80
2022/03/08 11:22:14;;;;;;;;;;;13.70;28.40;;;;;;5046349;28;43513;-80
2022/03/08 11:24:39;;;;;;;;;;;13.80;28.10;;;;;;5046093;28;42953;-80
2022/03/08 11:27:05;;;;;;;;;;;14.00;28.50;;;;;;5045735;28;42976;-80
2022/03/08 11:29:32;;;;;;;;;;;13.90;28.10;;;;;;5045784;28;42853;-80
2022/03/08 11:32:00;;;;;;;;;;;14.00;28.60;;;;;;5045709;28;42974;-80
2022/03/08 11:34:33;;;;;;;;;;;14.10;28.20;;;;;;5061304;28;42954;-80
2022/03/08 11:37:07;;;;;;;;;;;13.90;27.70;;;;;;5045317;28;43074;-79
2022/03/08 11:39:39;;;;;;;;;;;13.70;28.00;;;;;;5044772;28;42988;-81
2022/03/08 11:42:16;;;;;;;;;;;13.90;28.50;;;;;;5044636;28;43581;-79
2022/03/08 11:44:54;;;;;;;;;;;13.70;28.10;;;;;;5042377;28;42832;-80
2022/03/08 11:47:19;;;;;;;;;;;13.80;28.20;;;;;;5043921;28;43009;-78
2022/03/08 11:49:46;;;;;;;;;;;13.90;28.30;;;;;;5043938;28;42963;-79
2022/03/08 11:52:14;;;;;;;;;;;13.90;28.00;;;;;;5041623;28;43104;-78
2022/03/08 11:54:39;;;;;;;;;;;14.10;27.90;;;;;;5043744;28;42946;-76
2022/03/08 11:57:05;;;;;;;;;;;14.30;28.20;;;;;;5044035;28;43049;-77
2022/03/08 11:59:30;;;;;;;;;;;14.40;28.40;;;;;;5043908;28;43026;-77
2022/03/08 12:01:56;;;;;;;;;;;14.50;28.40;;;;;;5044292;28;43572;-76
2022/03/08 12:04:22;;;;;;;;;;;14.50;27.80;;;;;;5044993;28;43045;-76
2022/03/08 12:06:53;;;;;;;;;;;14.60;28.70;;;;;;5044660;28;42915;-76
2022/03/08 12:09:21;;;;;;;;;;;14.70;28.80;;;;;;5044377;28;42927;-76
2022/03/08 12:11:46;;;;;;;;;;;14.70;29.00;;;;;;5044325;28;43008;-76
2022/03/08 12:14:19;;;;;;;;;;;14.50;28.90;;;;;;5044724;28;42860;-76
2022/03/08 12:16:46;;;;;;;;;;;14.50;28.70;;;;;;5044031;28;43778;-76
2022/03/08 12:19:13;;;;;;;;;;;14.50;28.60;;;;;;5044017;28;43039;-76
2022/03/08 12:21:42;;;;;;;;;;;14.70;28.90;;;;;;5044137;28;42921;-76
2022/03/08 12:24:08;;;;;;;;;;;14.70;28.40;;;;;;5042257;28;43203;-76
2022/03/08 12:26:39;;;;;;;;;;;14.80;28.60;;;;;;5038681;28;42954;-77
2022/03/08 12:29:06;;;;;;;;;;;14.60;28.40;;;;;;5041043;28;42885;-76
2022/03/08 12:31:33;;;;;;;;;;;14.70;28.40;;;;;;5043310;28;43150;-73
2022/03/08 12:34:05;;;;;;;;;;;14.50;28.50;;;;;;5044130;28;42977;-77
2022/03/08 12:36:33;;;;;;;;;;;14.40;27.80;;;;;;5043848;28;42997;-77
2022/03/08 12:38:58;;;;;;;;;;;14.40;27.70;;;;;;5044113;28;43055;-77
2022/03/08 12:41:25;;;;;;;;;;;14.40;28.10;;;;;;5043875;28;43479;-76
2022/03/08 12:43:57;;;;;;;;;;;14.40;27.90;;;;;;5044238;28;43016;-76
2022/03/08 12:46:23;;;;;;;;;;;14.40;28.00;;;;;;5037837;28;44811;-76
2022/03/08 12:48:52;;;;;;;;;;;14.40;27.80;;;;;;5042772;28;42975;-76
2022/03/08 12:51:18;;;;;;;;;;;14.50;28.10;;;;;;5043731;28;43613;-76
2022/03/08 12:53:43;;;;;;;;;;;14.50;28.00;;;;;;5043428;28;42940;-76
2022/03/08 12:56:12;;;;;;;;;;;14.50;28.10;;;;;;5041355;28;44200;-76
2022/03/08 12:58:39;;;;;;;;;;;14.60;28.00;;;;;;5043190;28;43314;-73
2022/03/08 13:01:06;;;;;;;;;;;14.60;28.10;;;;;;5042891;28;43111;-74
2022/03/08 13:03:33;;;;;;;;;;;14.70;28.20;;;;;;5042988;28;43213;-77
2022/03/08 13:06:00;;;;;;;;;;;14.70;28.10;;;;;;5042365;28;43172;-77
2022/03/08 13:08:27;;;;;;;;;;;14.60;27.70;;;;;;5046207;28;43018;-76
2022/03/08 13:10:54;;;;;;;;;;;14.70;28.10;;;;;;5046078;28;43041;-76
2022/03/08 13:13:20;;;;;;;;;;;14.70;28.20;;;;;;5042691;28;43085;-76
2022/03/08 13:15:48;;;;;;;;;;;14.60;27.80;;;;;;5043398;28;44907;-77
2022/03/08 13:18:19;;;;;;;;;;;14.60;28.50;;;;;;5045980;28;42840;-77
2022/03/08 13:20:48;;;;;;;;;;;14.70;28.60;;;;;;5047001;28;43637;-75
2022/03/08 13:23:14;;;;;;;;;;;14.80;28.90;;;;;;5046134;28;43094;-74
2022/03/08 13:25:41;;;;;;;;;;;14.90;29.40;;;;;;5045896;28;42979;-74
2022/03/08 13:28:08;;;;;;;;;;;14.70;29.00;;;;;;5044358;28;42784;-77
2022/03/08 13:30:35;;;;;;;;;;;14.70;29.10;;;;;;5047182;28;43855;-78
2022/03/08 13:33:16;;;;;;;;;;;14.80;29.20;;;;;;5047802;28;42892;-77
2022/03/08 13:35:43;;;;;;;;;;;14.80;29.00;;;;;;5047796;28;43374;-77
2022/03/08 13:38:10;;;;;;;;;;;14.80;28.90;;;;;;5048035;28;42870;-76
2022/03/08 13:40:36;;;;;;;;;;;14.80;29.10;;;;;;5047126;28;44282;-77
2022/03/08 13:43:02;;;;;;;;;;;14.80;29.20;;;;;;5046795;28;42987;-77
2022/03/08 13:45:27;;;;;;;;;;;14.80;29.10;;;;;;5047730;28;43637;-75
2022/03/08 13:47:55;;;;;;;;;;;14.90;29.00;;;;;;5046973;28;42838;-77
2022/03/08 13:50:21;;;;;;;;;;;14.80;29.00;;;;;;5047121;28;43482;-76
2022/03/08 13:52:54;;;;;;;;;;;14.90;28.80;;;;;;5047651;28;42962;-77
2022/03/08 13:55:20;;;;;;;;;;;14.90;28.80;;;;;;5047549;28;42950;-76
2022/03/08 13:57:56;;;;;;;;;;;14.90;29.00;;;;;;5047076;28;42876;-77
2022/03/08 14:00:25;;;;;;;;;;;14.90;29.00;;;;;;5047308;28;42945;-78
2022/03/08 14:02:56;;;;;;;;;;;14.80;28.80;;;;;;5047405;28;43045;-77
2022/03/08 14:05:23;;;;;;;;;;;14.70;28.60;;;;;;5046942;28;42902;-77
2022/03/08 14:07:54;;;;;;;;;;;14.80;28.80;;;;;;5046899;28;42915;-76
2022/03/08 14:10:20;;;;;;;;;;;14.80;28.80;;;;;;5046813;28;43383;-76
2022/03/08 14:12:46;;;;;;;;;;;14.80;28.90;;;;;;5047423;28;42872;-77